Time;durP1;ratioP1;P1;durP2;ratioP2;P2;SDS_P1;SDS_P2;PMS_P1;PMS_P2;Temp;Humidity;BMP_temperature;BMP_pressure;BME280_temperature;BME280_humidity;BME280_pressure;Samples;Min_cycle;Max_cycle;Signal;HPM_P1;HPM_P2
2021/12/09 00:01:21;;;;;;;;;;;2.10;99.90;;;;;;5032299;28;19913;-85
2021/12/09 00:03:48;;;;;;;;;;;2.10;99.90;;;;;;5035899;28;19956;-83
2021/12/09 00:06:15;;;;;;;;;;;2.10;99.90;;;;;;5035053;28;19913;-82
2021/12/09 00:08:41;;;;;;;;;;;2.00;99.90;;;;;;5022042;28;19927;-82
2021/12/09 00:11:08;;;;;;;;;;;2.00;99.90;;;;;;5035289;28;19920;-83
2021/12/09 00:13:34;;;;;;;;;;;2.00;99.90;;;;;;5034618;28;20359;-83
2021/12/09 00:16:00;;;;;;;;;;;2.00;99.90;;;;;;5037088;28;19916;-85
2021/12/09 00:18:26;;;;;;;;;;;1.90;99.90;;;;;;5034069;28;20320;-83
2021/12/09 00:20:52;;;;;;;;;;;2.00;99.90;;;;;;5031671;28;20280;-83
2021/12/09 00:23:18;;;;;;;;;;;2.00;99.90;;;;;;5035027;28;19918;-83
2021/12/09 00:25:43;;;;;;;;;;;1.90;99.90;;;;;;5034373;28;19920;-85
2021/12/09 00:28:09;;;;;;;;;;;1.90;99.90;;;;;;5034917;28;19913;-84
2021/12/09 00:30:34;;;;;;;;;;;1.90;99.90;;;;;;5044192;28;19959;-84
2021/12/09 00:33:01;;;;;;;;;;;1.90;99.90;;;;;;5035630;28;19964;-83
2021/12/09 00:35:32;;;;;;;;;;;1.90;99.90;;;;;;5036524;28;19928;-84
2021/12/09 00:38:09;;;;;;;;;;;1.90;99.90;;;;;;5033448;28;20275;-86
2021/12/09 00:40:36;;;;;;;;;;;1.90;99.90;;;;;;5027846;28;19933;-84
2021/12/09 00:43:02;;;;;;;;;;;1.90;99.90;;;;;;5030438;28;19967;-84
2021/12/09 00:45:28;;;;;;;;;;;1.80;99.90;;;;;;5035745;28;19917;-84
2021/12/09 00:47:54;;;;;;;;;;;1.80;99.90;;;;;;5035834;28;20266;-83
2021/12/09 00:50:20;;;;;;;;;;;1.80;99.90;;;;;;5035549;28;19913;-84
2021/12/09 00:52:46;;;;;;;;;;;1.80;99.90;;;;;;5035599;28;19913;-85
2021/12/09 00:55:12;;;;;;;;;;;1.80;99.90;;;;;;5032479;28;19917;-85
2021/12/09 00:57:39;;;;;;;;;;;1.80;99.90;;;;;;5024339;28;19921;-84
2021/12/09 01:00:10;;;;;;;;;;;1.80;99.90;;;;;;5037136;28;19913;-89
2021/12/09 01:02:36;;;;;;;;;;;1.80;99.90;;;;;;5037312;28;19917;-86
2021/12/09 01:05:02;;;;;;;;;;;1.80;99.90;;;;;;5034369;28;20059;-86
2021/12/09 01:07:28;;;;;;;;;;;1.80;99.90;;;;;;5034097;28;19921;-88
2021/12/09 01:09:53;;;;;;;;;;;1.80;99.90;;;;;;5032922;28;20296;-85
2021/12/09 01:12:19;;;;;;;;;;;1.80;99.90;;;;;;5029246;28;19964;-81
2021/12/09 01:14:44;;;;;;;;;;;1.80;99.90;;;;;;5034315;28;20327;-84
2021/12/09 01:17:10;;;;;;;;;;;1.90;99.90;;;;;;5035266;28;19913;-84
2021/12/09 01:19:36;;;;;;;;;;;1.90;99.90;;;;;;5035442;28;20335;-85
2021/12/09 01:22:02;;;;;;;;;;;1.90;99.90;;;;;;5021336;28;19913;-84
2021/12/09 01:24:28;;;;;;;;;;;1.90;99.90;;;;;;5032317;28;20004;-84
2021/12/09 01:26:55;;;;;;;;;;;1.80;99.90;;;;;;5034370;28;19953;-89
2021/12/09 01:29:30;;;;;;;;;;;1.80;99.90;;;;;;5032836;28;20252;-81
2021/12/09 01:32:00;;;;;;;;;;;1.80;99.90;;;;;;5032744;28;19917;-86
2021/12/09 01:34:26;;;;;;;;;;;1.80;99.90;;;;;;5032980;28;19914;-89
2021/12/09 01:36:51;;;;;;;;;;;1.90;99.90;;;;;;5035179;28;19921;-85
2021/12/09 01:39:18;;;;;;;;;;;1.90;99.90;;;;;;5033868;28;20232;-87
2021/12/09 01:41:44;;;;;;;;;;;1.90;99.90;;;;;;5042333;28;20374;-86
2021/12/09 01:44:09;;;;;;;;;;;1.90;99.90;;;;;;5044969;28;19926;-86
2021/12/09 01:46:35;;;;;;;;;;;1.90;99.90;;;;;;5019383;28;19931;-84
2021/12/09 01:49:00;;;;;;;;;;;1.90;99.90;;;;;;5032585;28;19998;-86
2021/12/09 01:51:26;;;;;;;;;;;1.90;99.90;;;;;;5031246;28;19913;-87
2021/12/09 01:53:52;;;;;;;;;;;1.90;99.90;;;;;;5034913;28;19920;-85
2021/12/09 01:56:22;;;;;;;;;;;1.90;99.90;;;;;;5034246;28;20318;-89
2021/12/09 01:58:53;;;;;;;;;;;1.90;99.90;;;;;;5035417;28;19936;-86
2021/12/09 02:01:18;;;;;;;;;;;1.90;99.90;;;;;;5036093;28;20212;-85
2021/12/09 02:03:44;;;;;;;;;;;1.90;99.90;;;;;;5052112;28;19917;-88
2021/12/09 02:06:10;;;;;;;;;;;1.90;99.90;;;;;;5051759;28;19920;-87
2021/12/09 02:08:36;;;;;;;;;;;1.90;99.90;;;;;;5033078;28;19909;-84
2021/12/09 02:11:01;;;;;;;;;;;1.80;99.90;;;;;;5031217;28;19913;-82
2021/12/09 02:13:28;;;;;;;;;;;1.70;99.90;;;;;;5033444;28;19917;-84
2021/12/09 02:15:55;;;;;;;;;;;1.70;99.90;;;;;;5045631;28;19913;-87
2021/12/09 02:18:22;;;;;;;;;;;1.70;99.90;;;;;;5033503;28;19918;-83
2021/12/09 02:21:05;;;;;;;;;;;1.70;99.90;;;;;;5032513;28;20017;-83
2021/12/09 02:23:31;;;;;;;;;;;1.70;99.90;;;;;;5049180;28;19932;-80
2021/12/09 02:25:57;;;;;;;;;;;1.60;99.90;;;;;;5034681;28;19913;-84
2021/12/09 02:28:24;;;;;;;;;;;1.60;99.90;;;;;;5031911;28;19943;-84
2021/12/09 02:30:50;;;;;;;;;;;1.60;99.90;;;;;;5030886;28;19967;-85
2021/12/09 02:33:16;;;;;;;;;;;1.70;99.90;;;;;;5032447;28;19917;-87
2021/12/09 02:35:41;;;;;;;;;;;1.70;99.90;;;;;;5031989;28;19918;-85
2021/12/09 02:38:08;;;;;;;;;;;1.70;99.90;;;;;;5032361;28;19940;-86
2021/12/09 02:40:34;;;;;;;;;;;1.70;99.90;;;;;;5027598;28;19978;-89
2021/12/09 02:43:00;;;;;;;;;;;1.80;99.90;;;;;;5032810;28;20300;-92
2021/12/09 02:45:26;;;;;;;;;;;1.80;99.90;;;;;;5035068;28;19921;-85
2021/12/09 02:47:51;;;;;;;;;;;1.80;99.90;;;;;;5036885;28;19914;-85
2021/12/09 02:50:17;;;;;;;;;;;1.80;99.90;;;;;;5045814;28;19913;-87
2021/12/09 02:52:42;;;;;;;;;;;1.80;99.90;;;;;;5035011;28;20011;-87
2021/12/09 02:55:08;;;;;;;;;;;1.80;99.90;;;;;;5035121;28;19913;-89
2021/12/09 02:57:34;;;;;;;;;;;1.80;99.90;;;;;;5037495;28;20000;-87
2021/12/09 03:00:00;;;;;;;;;;;1.80;99.90;;;;;;5042628;28;19916;-86
2021/12/09 03:02:26;;;;;;;;;;;1.80;99.90;;;;;;5041261;28;19921;-90
2021/12/09 03:04:54;;;;;;;;;;;1.80;99.90;;;;;;5043753;28;19921;-83
2021/12/09 03:07:24;;;;;;;;;;;1.80;99.90;;;;;;5061270;22;19931;-89
2021/12/09 03:09:56;;;;;;;;;;;1.90;99.90;;;;;;5079772;28;19917;-87
2021/12/09 03:12:26;;;;;;;;;;;1.90;99.90;;;;;;5077671;28;19966;-90
2021/12/09 03:14:52;;;;;;;;;;;1.90;99.90;;;;;;5078683;28;19917;-86
2021/12/09 03:17:18;;;;;;;;;;;1.90;99.90;;;;;;5076704;28;20012;-89
2021/12/09 03:19:44;;;;;;;;;;;1.90;99.90;;;;;;5078085;28;19927;-90
2021/12/09 03:22:10;;;;;;;;;;;1.90;99.90;;;;;;5078488;28;19917;-92
2021/12/09 03:24:36;;;;;;;;;;;1.90;99.90;;;;;;5079009;28;19974;-91
2021/12/09 03:27:02;;;;;;;;;;;2.00;99.90;;;;;;5086704;28;20319;-93
2021/12/09 03:29:28;;;;;;;;;;;1.90;99.90;;;;;;5078791;28;19912;-93
2021/12/09 03:31:55;;;;;;;;;;;2.00;99.90;;;;;;5074329;28;19965;-88
2021/12/09 03:34:22;;;;;;;;;;;2.00;99.90;;;;;;5077176;28;19920;-90
2021/12/09 03:36:49;;;;;;;;;;;2.00;99.90;;;;;;5077731;28;19917;-91
2021/12/09 03:39:18;;;;;;;;;;;2.00;99.90;;;;;;5089522;28;19913;-89
2021/12/09 03:41:45;;;;;;;;;;;2.00;99.90;;;;;;5077613;28;20212;-92
2021/12/09 03:44:11;;;;;;;;;;;2.00;99.90;;;;;;5091610;28;19924;-89
2021/12/09 03:46:36;;;;;;;;;;;1.90;99.90;;;;;;5078566;28;20421;-91
2021/12/09 03:49:05;;;;;;;;;;;1.90;99.90;;;;;;5078323;28;20294;-88
2021/12/09 03:51:32;;;;;;;;;;;1.90;99.90;;;;;;5078656;28;19909;-90
2021/12/09 03:53:57;;;;;;;;;;;1.80;99.90;;;;;;5079650;28;19935;-91
2021/12/09 03:56:23;;;;;;;;;;;1.80;99.90;;;;;;5078293;28;20319;-90
2021/12/09 03:58:49;;;;;;;;;;;1.80;99.90;;;;;;5079227;28;20003;-91
2021/12/09 04:01:14;;;;;;;;;;;1.80;99.90;;;;;;5080766;28;19912;-85
2021/12/09 04:03:40;;;;;;;;;;;1.80;99.90;;;;;;5078097;28;20272;-86
2021/12/09 04:06:07;;;;;;;;;;;1.70;99.90;;;;;;5077081;28;19916;-90
2021/12/09 04:08:33;;;;;;;;;;;1.80;99.90;;;;;;5080166;28;19948;-87
2021/12/09 04:11:02;;;;;;;;;;;1.80;99.90;;;;;;5092674;28;20303;-96
2021/12/09 04:13:28;;;;;;;;;;;1.90;99.90;;;;;;5092927;28;19916;-90
2021/12/09 04:15:54;;;;;;;;;;;1.90;99.90;;;;;;5080035;28;19913;-90
2021/12/09 04:18:20;;;;;;;;;;;1.90;99.90;;;;;;5081809;28;20004;-91
2021/12/09 04:20:46;;;;;;;;;;;1.90;99.90;;;;;;5081505;28;19920;-91
2021/12/09 04:23:13;;;;;;;;;;;1.90;99.90;;;;;;5079053;28;19920;-95
2021/12/09 04:25:39;;;;;;;;;;;1.90;99.90;;;;;;5081808;28;19912;-93
2021/12/09 04:28:04;;;;;;;;;;;1.90;99.90;;;;;;5081540;28;20358;-91
2021/12/09 04:30:31;;;;;;;;;;;1.90;99.90;;;;;;5080614;28;19919;-95
2021/12/09 04:32:56;;;;;;;;;;;1.90;99.90;;;;;;5079793;28;19912;-94
2021/12/09 04:35:22;;;;;;;;;;;1.90;99.90;;;;;;5083705;28;19920;-92
2021/12/09 04:37:48;;;;;;;;;;;1.90;99.90;;;;;;5080558;28;19916;-86
2021/12/09 04:40:14;;;;;;;;;;;1.90;99.90;;;;;;5080287;28;19920;-90
2021/12/09 04:45:07;;;;;;;;;;;1.90;99.90;;;;;;5075613;22;19928;-91
2021/12/09 04:47:33;;;;;;;;;;;1.90;99.90;;;;;;5069109;22;19956;-90
2021/12/09 04:49:59;;;;;;;;;;;1.90;99.90;;;;;;5053457;28;20838;-95
2021/12/09 04:52:24;;;;;;;;;;;1.90;99.90;;;;;;5052283;28;20019;-93
2021/12/09 04:54:50;;;;;;;;;;;1.90;99.90;;;;;;5051450;28;19967;-94
2021/12/09 04:57:16;;;;;;;;;;;1.90;99.90;;;;;;5071185;28;21260;-89
2021/12/09 04:59:42;;;;;;;;;;;1.90;99.90;;;;;;5078724;23;19931;-96
2021/12/09 05:02:12;;;;;;;;;;;1.90;99.90;;;;;;5065878;28;20617;-94
2021/12/09 05:04:38;;;;;;;;;;;1.80;99.90;;;;;;5082858;22;20346;-95
2021/12/09 05:07:04;;;;;;;;;;;1.80;99.90;;;;;;5064771;22;19913;-91
2021/12/09 05:09:29;;;;;;;;;;;1.80;99.90;;;;;;5075229;28;19954;-89
2021/12/09 05:11:55;;;;;;;;;;;1.80;99.90;;;;;;5077003;28;20327;-95
2021/12/09 05:14:26;;;;;;;;;;;1.70;99.90;;;;;;5084044;23;19935;-90
2021/12/09 05:16:53;;;;;;;;;;;1.70;99.90;;;;;;5057621;28;19909;-91
2021/12/09 05:19:19;;;;;;;;;;;1.70;99.90;;;;;;5058823;28;19947;-89
2021/12/09 05:21:44;;;;;;;;;;;1.70;99.90;;;;;;5075254;22;19931;-90
2021/12/09 05:24:11;;;;;;;;;;;1.70;99.90;;;;;;5056164;28;20304;-91
2021/12/09 05:26:45;;;;;;;;;;;1.70;99.90;;;;;;5022437;28;20323;-89
2021/12/09 05:29:11;;;;;;;;;;;1.70;99.90;;;;;;5019401;28;19917;-87
2021/12/09 05:34:21;;;;;;;;;;;1.70;99.90;;;;;;5036773;28;19932;-93
2021/12/09 05:36:47;;;;;;;;;;;1.70;99.90;;;;;;5018188;28;19917;-92
2021/12/09 05:39:13;;;;;;;;;;;1.60;99.90;;;;;;5012491;28;20040;-92
2021/12/09 05:41:40;;;;;;;;;;;1.60;99.90;;;;;;5017901;28;19931;-84
2021/12/09 05:44:06;;;;;;;;;;;1.70;99.90;;;;;;5019959;28;19921;-87
2021/12/09 05:46:32;;;;;;;;;;;1.60;99.90;;;;;;5025662;28;20300;-89
2021/12/09 05:48:58;;;;;;;;;;;1.60;99.90;;;;;;5035207;28;19920;-90
2021/12/09 05:51:24;;;;;;;;;;;1.60;99.90;;;;;;5018618;28;19987;-89
2021/12/09 05:53:50;;;;;;;;;;;1.60;99.90;;;;;;5037639;28;20222;-85
2021/12/09 05:56:16;;;;;;;;;;;1.60;99.90;;;;;;5036840;28;20243;-95
2021/12/09 05:58:41;;;;;;;;;;;1.60;99.90;;;;;;5029697;28;19920;-87
2021/12/09 06:01:07;;;;;;;;;;;1.60;99.90;;;;;;5021899;28;19914;-88
2021/12/09 06:03:33;;;;;;;;;;;1.60;99.90;;;;;;5018156;28;19917;-88
2021/12/09 06:05:59;;;;;;;;;;;1.60;99.90;;;;;;5018751;28;19921;-85
2021/12/09 06:08:25;;;;;;;;;;;1.60;99.90;;;;;;5020754;28;19913;-93
2021/12/09 06:10:51;;;;;;;;;;;1.60;99.90;;;;;;5018337;28;20463;-89
2021/12/09 06:13:22;;;;;;;;;;;1.60;99.90;;;;;;5036415;28;19913;-93
2021/12/09 06:15:49;;;;;;;;;;;1.60;99.90;;;;;;5038233;28;19920;-87
2021/12/09 06:18:14;;;;;;;;;;;1.60;99.90;;;;;;5032679;28;19917;-90
2021/12/09 06:20:40;;;;;;;;;;;1.60;99.90;;;;;;5013334;28;20002;-85
2021/12/09 06:23:06;;;;;;;;;;;1.60;99.90;;;;;;5019495;28;19913;-91
2021/12/09 06:25:31;;;;;;;;;;;1.50;99.90;;;;;;5019663;28;19953;-89
2021/12/09 06:27:57;;;;;;;;;;;1.50;99.90;;;;;;5035937;28;19917;-88
2021/12/09 06:30:23;;;;;;;;;;;1.50;99.90;;;;;;5031906;28;19925;-87
2021/12/09 06:32:48;;;;;;;;;;;1.50;99.90;;;;;;5019265;28;19917;-90
2021/12/09 06:35:14;;;;;;;;;;;1.50;99.90;;;;;;5034714;28;20197;-94
2021/12/09 06:37:44;;;;;;;;;;;1.50;99.90;;;;;;5019708;28;19913;-86
2021/12/09 06:40:10;;;;;;;;;;;1.60;99.90;;;;;;5035761;28;19920;-82
2021/12/09 06:42:36;;;;;;;;;;;1.50;99.90;;;;;;5034939;28;19917;-83
2021/12/09 06:45:03;;;;;;;;;;;1.50;99.90;;;;;;5039998;28;19970;-87
2021/12/09 06:47:28;;;;;;;;;;;1.60;99.90;;;;;;5021960;28;20031;-89
2021/12/09 06:49:57;;;;;;;;;;;1.60;99.90;;;;;;5019288;28;20340;-94
2021/12/09 06:52:22;;;;;;;;;;;1.60;99.90;;;;;;5017472;28;19917;-86
2021/12/09 06:54:48;;;;;;;;;;;1.60;99.90;;;;;;5013725;28;19936;-87
2021/12/09 06:57:14;;;;;;;;;;;1.50;99.90;;;;;;5013714;28;20197;-88
2021/12/09 06:59:39;;;;;;;;;;;1.50;99.90;;;;;;5021240;28;19932;-85
2021/12/09 07:02:05;;;;;;;;;;;1.50;99.90;;;;;;5039443;28;19971;-91
2021/12/09 07:04:31;;;;;;;;;;;1.50;99.90;;;;;;5010677;28;19913;-89
2021/12/09 07:06:56;;;;;;;;;;;1.40;99.90;;;;;;5018851;28;20003;-90
2021/12/09 07:09:27;;;;;;;;;;;1.40;99.90;;;;;;5021809;28;19909;-88
2021/12/09 07:11:53;;;;;;;;;;;1.40;99.90;;;;;;5039094;28;19913;-92
2021/12/09 07:14:19;;;;;;;;;;;1.40;99.90;;;;;;5039456;28;19917;-89
2021/12/09 07:16:45;;;;;;;;;;;1.40;99.90;;;;;;5021296;28;19913;-90
2021/12/09 07:19:10;;;;;;;;;;;1.40;99.90;;;;;;5038309;28;19932;-87
2021/12/09 07:21:36;;;;;;;;;;;1.40;99.90;;;;;;5038306;28;19960;-90
2021/12/09 07:24:03;;;;;;;;;;;1.40;99.90;;;;;;5010312;28;20552;-91
2021/12/09 07:26:30;;;;;;;;;;;1.40;99.90;;;;;;5021363;28;20197;-90
2021/12/09 07:28:56;;;;;;;;;;;1.40;99.90;;;;;;5010817;28;20308;-87
2021/12/09 07:31:23;;;;;;;;;;;1.40;99.90;;;;;;5039412;28;19920;-88
2021/12/09 07:33:50;;;;;;;;;;;1.40;99.90;;;;;;5049411;23;19983;-89
2021/12/09 07:36:15;;;;;;;;;;;1.50;99.90;;;;;;5013438;28;19952;-88
2021/12/09 07:38:41;;;;;;;;;;;1.50;99.90;;;;;;5006715;28;20249;-88
2021/12/09 07:41:11;;;;;;;;;;;1.50;99.90;;;;;;5019796;23;19971;-87
2021/12/09 07:43:37;;;;;;;;;;;1.50;99.90;;;;;;5032411;28;19963;-91
2021/12/09 07:46:02;;;;;;;;;;;1.60;99.90;;;;;;5032857;28;19922;-82
2021/12/09 07:48:28;;;;;;;;;;;1.60;99.90;;;;;;5019383;28;19917;-89
2021/12/09 07:50:53;;;;;;;;;;;1.70;99.90;;;;;;5011896;28;19918;-90
2021/12/09 07:53:20;;;;;;;;;;;1.70;99.90;;;;;;5033374;28;19910;-92
2021/12/09 07:55:46;;;;;;;;;;;1.80;99.90;;;;;;5013481;28;19940;-90
2021/12/09 07:58:12;;;;;;;;;;;1.90;99.90;;;;;;5010035;28;20035;-86
2021/12/09 08:00:37;;;;;;;;;;;1.90;99.90;;;;;;5025853;28;19971;-94
2021/12/09 08:03:03;;;;;;;;;;;1.90;99.90;;;;;;5030800;28;19913;-92
2021/12/09 08:05:31;;;;;;;;;;;2.00;99.90;;;;;;5002588;28;19910;-89
2021/12/09 08:07:57;;;;;;;;;;;2.00;99.90;;;;;;5006443;28;19983;-90
2021/12/09 08:10:23;;;;;;;;;;;2.10;99.90;;;;;;5003685;28;20293;-82
2021/12/09 08:12:49;;;;;;;;;;;2.10;99.90;;;;;;5012433;28;19917;-90
2021/12/09 08:15:16;;;;;;;;;;;2.20;99.90;;;;;;5025145;28;20327;-91
2021/12/09 08:20:28;;;;;;;;;;;2.20;99.90;;;;;;5030675;28;19909;-95
2021/12/09 08:22:54;;;;;;;;;;;2.30;99.90;;;;;;4999373;28;19917;-91
2021/12/09 08:25:20;;;;;;;;;;;2.30;99.90;;;;;;5000984;28;19909;-89
2021/12/09 08:27:45;;;;;;;;;;;2.40;99.90;;;;;;5002050;28;19914;-90
2021/12/09 08:30:13;;;;;;;;;;;2.50;99.90;;;;;;5009966;28;19909;-93
2021/12/09 08:32:38;;;;;;;;;;;2.50;99.90;;;;;;5015853;28;20259;-88
2021/12/09 08:35:04;;;;;;;;;;;2.50;99.90;;;;;;5017502;28;19920;-89
2021/12/09 08:37:30;;;;;;;;;;;2.60;99.90;;;;;;5016272;28;20225;-87
2021/12/09 08:39:56;;;;;;;;;;;2.60;99.90;;;;;;5026558;28;19919;-95
2021/12/09 08:42:21;;;;;;;;;;;2.60;99.90;;;;;;5000690;28;19914;-94
2021/12/09 08:44:47;;;;;;;;;;;2.60;99.90;;;;;;5003202;28;19921;-92
2021/12/09 08:47:13;;;;;;;;;;;2.60;99.90;;;;;;5008476;28;20301;-91
2021/12/09 08:49:39;;;;;;;;;;;2.60;99.90;;;;;;5001713;28;19951;-88
2021/12/09 08:52:04;;;;;;;;;;;2.70;99.90;;;;;;5032921;28;19957;-85
2021/12/09 08:54:30;;;;;;;;;;;2.70;99.90;;;;;;5022582;28;19964;-87
2021/12/09 08:56:57;;;;;;;;;;;2.70;99.90;;;;;;5021427;28;20310;-89
2021/12/09 08:59:24;;;;;;;;;;;2.70;99.90;;;;;;5019578;28;19967;-88
2021/12/09 09:01:51;;;;;;;;;;;2.80;99.90;;;;;;5025265;28;19944;-90
2021/12/09 09:04:17;;;;;;;;;;;2.80;99.90;;;;;;5007360;28;19931;-89
2021/12/09 09:06:53;;;;;;;;;;;2.80;99.90;;;;;;5004687;28;20283;-86
2021/12/09 09:09:18;;;;;;;;;;;2.90;99.90;;;;;;5020984;28;19913;-82
2021/12/09 09:11:44;;;;;;;;;;;2.90;99.90;;;;;;5010137;28;19971;-93
2021/12/09 09:14:10;;;;;;;;;;;3.00;99.90;;;;;;5002129;28;19964;-96
2021/12/09 09:16:37;;;;;;;;;;;3.00;99.90;;;;;;5012148;28;19910;-95
2021/12/09 09:19:03;;;;;;;;;;;3.10;99.90;;;;;;5014971;28;20288;-87
2021/12/09 09:21:29;;;;;;;;;;;3.20;99.90;;;;;;5046568;23;19925;-87
2021/12/09 09:23:56;;;;;;;;;;;3.20;99.90;;;;;;5063535;22;20046;-90
2021/12/09 09:26:22;;;;;;;;;;;3.30;99.90;;;;;;5057695;28;19913;-95
2021/12/09 09:28:48;;;;;;;;;;;3.40;99.90;;;;;;5054570;28;19925;-84
2021/12/09 09:31:14;;;;;;;;;;;3.40;99.90;;;;;;5055524;28;19992;-88
2021/12/09 09:33:39;;;;;;;;;;;3.40;99.90;;;;;;5055313;28;20315;-89
2021/12/09 09:36:05;;;;;;;;;;;3.40;99.90;;;;;;5089691;28;19912;-93
2021/12/09 09:38:31;;;;;;;;;;;3.40;99.90;;;;;;5055758;28;19913;-86
2021/12/09 09:41:04;;;;;;;;;;;3.40;99.90;;;;;;5056013;28;19909;-91
2021/12/09 09:46:01;;;;;;;;;;;3.30;99.90;;;;;;5055392;28;20222;-89
2021/12/09 09:48:27;;;;;;;;;;;3.30;99.90;;;;;;5052223;28;19958;-89
2021/12/09 09:50:52;;;;;;;;;;;3.30;99.90;;;;;;5043688;28;20242;-95
2021/12/09 09:53:18;;;;;;;;;;;3.30;99.90;;;;;;5078124;28;19917;-91
2021/12/09 09:55:47;;;;;;;;;;;3.40;99.90;;;;;;5055394;28;19925;-89
2021/12/09 09:58:13;;;;;;;;;;;3.30;99.90;;;;;;5086732;28;19913;-91
2021/12/09 10:00:39;;;;;;;;;;;3.30;99.90;;;;;;5044319;28;19931;-92
2021/12/09 10:03:09;;;;;;;;;;;3.40;99.90;;;;;;5052171;28;20046;-90
2021/12/09 10:05:37;;;;;;;;;;;3.40;99.90;;;;;;5046955;28;19959;-90
2021/12/09 10:08:04;;;;;;;;;;;3.40;99.90;;;;;;5055913;28;19917;-90
2021/12/09 10:10:30;;;;;;;;;;;3.40;99.90;;;;;;5054544;28;20003;-92
2021/12/09 10:12:56;;;;;;;;;;;3.40;99.90;;;;;;5055948;28;20264;-87
2021/12/09 10:15:32;;;;;;;;;;;3.40;99.90;;;;;;5053899;28;19917;-86
2021/12/09 10:17:58;;;;;;;;;;;3.50;99.90;;;;;;5054663;28;19959;-88
2021/12/09 10:20:40;;;;;;;;;;;3.50;99.90;;;;;;5062716;22;19925;-88
2021/12/09 10:23:27;;;;;;;;;;;3.60;99.90;;;;;;5047445;28;19924;-87
2021/12/09 10:26:11;;;;;;;;;;;3.60;99.90;;;;;;5056059;28;19912;-91
2021/12/09 10:28:37;;;;;;;;;;;3.60;99.90;;;;;;5053615;28;19913;-83
2021/12/09 10:31:08;;;;;;;;;;;3.60;99.90;;;;;;5055314;28;19913;-94
2021/12/09 10:34:32;;;;;;;;;;;3.60;99.90;;;;;;5051818;28;19944;-93
2021/12/09 10:36:59;;;;;;;;;;;3.60;99.90;;;;;;4986047;28;19945;-89
2021/12/09 10:39:28;;;;;;;;;;;3.70;99.90;;;;;;4974058;28;19913;-89
2021/12/09 10:41:55;;;;;;;;;;;3.70;99.90;;;;;;4988254;28;19918;-86
2021/12/09 10:44:32;;;;;;;;;;;3.70;99.90;;;;;;4974527;28;20005;-92
2021/12/09 10:47:09;;;;;;;;;;;3.70;99.90;;;;;;4976242;28;19977;-90
2021/12/09 10:49:46;;;;;;;;;;;3.70;99.90;;;;;;4967867;28;20282;-92
2021/12/09 10:52:21;;;;;;;;;;;3.80;99.90;;;;;;4988033;28;19950;-87
2021/12/09 10:54:46;;;;;;;;;;;3.80;99.90;;;;;;4988751;28;19924;-82
2021/12/09 10:57:21;;;;;;;;;;;3.80;99.90;;;;;;4991942;28;19918;-84
2021/12/09 10:59:47;;;;;;;;;;;3.80;99.90;;;;;;4976709;28;20538;-86
2021/12/09 11:02:13;;;;;;;;;;;3.80;99.90;;;;;;4994900;28;19925;-83
2021/12/09 11:04:38;;;;;;;;;;;3.80;99.90;;;;;;4981949;28;20049;-84
2021/12/09 11:07:20;;;;;;;;;;;3.90;99.90;;;;;;5007948;28;20359;-94
2021/12/09 11:09:46;;;;;;;;;;;3.90;99.90;;;;;;5054184;28;19970;-82
2021/12/09 11:12:28;;;;;;;;;;;3.90;99.90;;;;;;5044450;28;19913;-88
2021/12/09 11:15:00;;;;;;;;;;;3.90;99.90;;;;;;5046163;28;19920;-89
2021/12/09 11:17:34;;;;;;;;;;;4.00;99.90;;;;;;5054194;28;20350;-88
2021/12/09 11:20:00;;;;;;;;;;;4.00;99.90;;;;;;5051591;28;19912;-86
2021/12/09 11:22:30;;;;;;;;;;;4.00;99.90;;;;;;5050945;28;19921;-91
2021/12/09 11:25:00;;;;;;;;;;;4.00;99.90;;;;;;5043739;28;20201;-88
2021/12/09 11:27:28;;;;;;;;;;;4.00;99.90;;;;;;5048811;28;19913;-81
2021/12/09 11:30:00;;;;;;;;;;;4.00;99.90;;;;;;5055123;28;20477;-85
2021/12/09 11:32:52;;;;;;;;;;;4.00;99.90;;;;;;5054853;28;20315;-88
2021/12/09 11:35:25;;;;;;;;;;;4.00;99.90;;;;;;5055020;28;20220;-83
2021/12/09 11:38:02;;;;;;;;;;;4.10;99.90;;;;;;5054426;28;20219;-84
2021/12/09 11:40:47;;;;;;;;;;;4.10;99.90;;;;;;5050444;28;19913;-91
2021/12/09 11:43:18;;;;;;;;;;;4.20;99.90;;;;;;5053996;28;19917;-89
2021/12/09 11:45:45;;;;;;;;;;;4.20;99.90;;;;;;5047290;28;20228;-85
2021/12/09 11:48:11;;;;;;;;;;;4.30;99.90;;;;;;5054727;28;19974;-86
2021/12/09 11:50:42;;;;;;;;;;;4.30;99.90;;;;;;5056327;28;19913;-84
2021/12/09 11:53:09;;;;;;;;;;;4.40;99.90;;;;;;5055051;28;19913;-85
2021/12/09 11:55:41;;;;;;;;;;;4.50;99.90;;;;;;5057518;28;19920;-87
2021/12/09 11:58:23;;;;;;;;;;;4.50;99.90;;;;;;5058301;28;19956;-95
2021/12/09 12:12:29;;;;;;;;;;;4.70;99.90;;;;;;5052527;28;19920;-83
2021/12/09 12:15:00;;;;;;;;;;;4.70;99.90;;;;;;5053093;28;19917;-86
2021/12/09 12:17:34;;;;;;;;;;;4.70;99.90;;;;;;5050853;28;19920;-83
2021/12/09 12:20:32;;;;;;;;;;;4.80;99.90;;;;;;5039174;28;19936;-89
2021/12/09 12:28:52;;;;;;;;;;;4.70;99.90;;;;;;5032125;28;19963;-92
2021/12/09 12:32:02;;;;;;;;;;;4.70;99.90;;;;;;5050421;28;19964;-91
2021/12/09 12:40:21;;;;;;;;;;;4.80;99.90;;;;;;5014615;28;20048;-90
2021/12/09 12:42:57;;;;;;;;;;;4.80;99.90;;;;;;5004675;28;19945;-84
2021/12/09 12:45:39;;;;;;;;;;;4.80;99.90;;;;;;4998312;28;19918;-84
2021/12/09 12:48:30;;;;;;;;;;;4.90;99.90;;;;;;5012216;28;19921;-87
2021/12/09 12:51:07;;;;;;;;;;;4.80;99.90;;;;;;5013020;28;19921;-87
2021/12/09 12:53:37;;;;;;;;;;;4.90;99.90;;;;;;5013517;28;20251;-84
2021/12/09 12:56:20;;;;;;;;;;;4.90;99.90;;;;;;5014669;28;19913;-91
2021/12/09 12:59:04;;;;;;;;;;;4.90;99.90;;;;;;5014979;28;19922;-87
2021/12/09 13:01:30;;;;;;;;;;;4.90;99.90;;;;;;5009358;28;20009;-87
2021/12/09 13:04:02;;;;;;;;;;;4.90;99.90;;;;;;4998172;28;20019;-86
2021/12/09 13:06:40;;;;;;;;;;;4.90;99.90;;;;;;5013396;28;19913;-87
2021/12/09 13:09:32;;;;;;;;;;;4.90;99.90;;;;;;4989261;28;20833;-85
2021/12/09 13:12:05;;;;;;;;;;;4.90;99.90;;;;;;5009876;28;19913;-85
2021/12/09 13:14:34;;;;;;;;;;;4.90;99.90;;;;;;5050720;28;20600;-85
2021/12/09 13:17:09;;;;;;;;;;;4.90;99.90;;;;;;5055805;28;19913;-88
2021/12/09 13:19:47;;;;;;;;;;;4.90;99.90;;;;;;5054146;28;19962;-85
2021/12/09 13:22:35;;;;;;;;;;;4.90;99.90;;;;;;5052684;28;19931;-87
2021/12/09 13:25:24;;;;;;;;;;;5.00;99.90;;;;;;5064922;28;20000;-92
2021/12/09 13:27:56;;;;;;;;;;;5.00;99.90;;;;;;5055667;28;19959;-83
2021/12/09 13:30:36;;;;;;;;;;;4.90;99.90;;;;;;5048915;28;19983;-91
2021/12/09 13:33:25;;;;;;;;;;;4.90;99.90;;;;;;5049494;28;19978;-83
2021/12/09 13:38:50;;;;;;;;;;;5.00;99.90;;;;;;5051459;28;19998;-83
2021/12/09 13:49:49;;;;;;;;;;;5.00;99.90;;;;;;5049108;28;19952;-88
2021/12/09 13:54:07;;;;;;;;;;;4.90;99.90;;;;;;5052142;28;19967;-83
2021/12/09 13:54:54;;;;;;;;;;;5.00;99.90;;;;;;5051318;28;19913;-87
2021/12/09 13:57:31;;;;;;;;;;;5.00;99.90;;;;;;5051538;28;19951;-85
2021/12/09 13:59:57;;;;;;;;;;;5.00;99.90;;;;;;5051481;28;19917;-83
2021/12/09 14:02:23;;;;;;;;;;;5.00;99.90;;;;;;5052152;28;19936;-85
2021/12/09 14:04:49;;;;;;;;;;;5.00;99.90;;;;;;5046702;28;20057;-82
2021/12/09 14:07:25;;;;;;;;;;;5.00;99.90;;;;;;5051579;28;19913;-93
2021/12/09 14:09:59;;;;;;;;;;;5.00;99.90;;;;;;5052105;28;19913;-87
2021/12/09 14:12:37;;;;;;;;;;;5.00;99.90;;;;;;5066518;28;19947;-84
2021/12/09 14:15:08;;;;;;;;;;;5.00;99.90;;;;;;5069948;28;19917;-83
2021/12/09 14:17:35;;;;;;;;;;;5.00;99.90;;;;;;5047871;28;19924;-92
2021/12/09 14:20:03;;;;;;;;;;;5.00;99.90;;;;;;5050306;28;19913;-88
2021/12/09 14:22:36;;;;;;;;;;;4.90;99.90;;;;;;5054307;28;19931;-86
2021/12/09 14:25:07;;;;;;;;;;;5.00;99.90;;;;;;5052558;28;20074;-89
2021/12/09 14:27:33;;;;;;;;;;;5.00;99.90;;;;;;5060443;23;19929;-83
2021/12/09 14:29:59;;;;;;;;;;;4.90;99.90;;;;;;5052267;28;19917;-89
2021/12/09 14:32:26;;;;;;;;;;;4.90;99.90;;;;;;5061051;28;19913;-83
2021/12/09 14:34:55;;;;;;;;;;;4.90;99.90;;;;;;5047855;28;19913;-89
2021/12/09 14:37:21;;;;;;;;;;;4.90;99.90;;;;;;5049353;28;19913;-86
2021/12/09 14:39:47;;;;;;;;;;;5.00;99.90;;;;;;5048227;28;19963;-94
2021/12/09 14:42:19;;;;;;;;;;;5.00;99.90;;;;;;5049399;28;19952;-83
2021/12/09 14:44:59;;;;;;;;;;;4.90;99.90;;;;;;5051381;28;19924;-82
2021/12/09 14:47:25;;;;;;;;;;;5.00;99.90;;;;;;5045200;28;19913;-83
2021/12/09 14:49:52;;;;;;;;;;;4.90;99.90;;;;;;5042555;28;20231;-83
2021/12/09 14:52:28;;;;;;;;;;;5.00;99.90;;;;;;5050879;28;19917;-80
2021/12/09 14:55:09;;;;;;;;;;;5.00;99.90;;;;;;5050459;28;19920;-83
2021/12/09 14:57:34;;;;;;;;;;;5.00;99.90;;;;;;5052784;28;19921;-83
2021/12/09 15:00:00;;;;;;;;;;;5.00;99.90;;;;;;5052426;28;20330;-85
2021/12/09 15:02:33;;;;;;;;;;;5.00;99.90;;;;;;5050908;28;19912;-83
2021/12/09 15:05:07;;;;;;;;;;;5.00;99.90;;;;;;5052664;28;19924;-83
2021/12/09 15:10:03;;;;;;;;;;;5.00;99.90;;;;;;5044807;28;20312;-84
2021/12/09 15:12:32;;;;;;;;;;;4.90;99.90;;;;;;5056102;28;19909;-82
2021/12/09 15:15:01;;;;;;;;;;;5.00;99.90;;;;;;5052901;28;19960;-84
2021/12/09 15:17:27;;;;;;;;;;;5.00;99.90;;;;;;5052100;28;19917;-83
2021/12/09 15:20:10;;;;;;;;;;;5.00;99.90;;;;;;5052292;28;19942;-83
2021/12/09 15:22:58;;;;;;;;;;;5.00;99.90;;;;;;5045063;28;20019;-81
2021/12/09 15:25:32;;;;;;;;;;;5.00;99.90;;;;;;5053156;28;19921;-82
2021/12/09 15:28:00;;;;;;;;;;;4.90;99.90;;;;;;5051272;28;19992;-81